createdAt,value
2023-02-17T00:01:05.115Z,1007.1
2023-02-17T00:02:21.408Z,1007.1
2023-02-17T00:03:37.706Z,1007.1
2023-02-17T00:04:53.996Z,1007.1
2023-02-17T00:06:10.293Z,1007.2
2023-02-17T00:07:26.597Z,1007.2
2023-02-17T00:08:42.881Z,1007.2
2023-02-17T00:09:59.180Z,1007.2
2023-02-17T00:11:15.477Z,1007.2
2023-02-17T00:12:31.767Z,1007.2
2023-02-17T00:13:48.174Z,1007.2
2023-02-17T00:15:04.481Z,1007.2
2023-02-17T00:16:20.764Z,1007.1
2023-02-17T00:17:37.066Z,1007.1
2023-02-17T00:18:53.353Z,1007.1
2023-02-17T00:20:09.649Z,1007.2
2023-02-17T00:21:25.938Z,1007.1
2023-02-17T00:22:42.232Z,1007.1
2023-02-17T00:23:58.534Z,1007.1
2023-02-17T00:25:14.827Z,1007
2023-02-17T00:26:31.117Z,1007.1
2023-02-17T00:27:47.411Z,1007.1
2023-02-17T00:29:03.706Z,1007.1
2023-02-17T00:30:19.016Z,1007.1
2023-02-17T00:31:35.319Z,1007
2023-02-17T00:32:51.612Z,1007
2023-02-17T00:34:07.899Z,1007
2023-02-17T00:35:24.194Z,1006.9
2023-02-17T00:36:40.500Z,1007
2023-02-17T00:37:56.783Z,1006.9
2023-02-17T00:39:13.081Z,1006.9
2023-02-17T00:40:29.376Z,1006.9
2023-02-17T00:41:45.672Z,1006.9
2023-02-17T00:43:01.964Z,1006.9
2023-02-17T00:44:18.258Z,1006.9
2023-02-17T00:45:34.549Z,1006.8
2023-02-17T00:46:49.856Z,1006.8
2023-02-17T00:48:06.161Z,1006.8
2023-02-17T00:49:22.452Z,1006.8
2023-02-17T00:50:38.742Z,1006.8
2023-02-17T00:51:55.035Z,1006.8
2023-02-17T00:53:11.326Z,1006.8
2023-02-17T00:54:27.629Z,1006.8
2023-02-17T00:55:43.922Z,1006.8
2023-02-17T00:57:00.214Z,1006.8
2023-02-17T00:58:16.502Z,1006.8
2023-02-17T00:59:32.811Z,1006.8
2023-02-17T01:00:49.107Z,1006.8
2023-02-17T01:02:05.391Z,1006.8
2023-02-17T01:03:20.713Z,1006.8
2023-02-17T01:04:36.995Z,1006.7
2023-02-17T01:05:53.297Z,1006.7
2023-02-17T01:07:09.585Z,1006.7
2023-02-17T01:08:25.884Z,1006.7
2023-02-17T01:09:42.171Z,1006.7
2023-02-17T01:10:58.458Z,1006.7
2023-02-17T01:12:14.756Z,1006.7
2023-02-17T01:13:31.000Z,1006.8
2023-02-17T01:14:47.347Z,1006.8
2023-02-17T01:16:03.644Z,1006.6
2023-02-17T01:17:19.945Z,1006.7
2023-02-17T01:18:36.242Z,1006.6
2023-02-17T01:19:51.544Z,1006.5
2023-02-17T01:21:07.829Z,1006.5
2023-02-17T01:22:24.134Z,1006.4
2023-02-17T01:23:40.438Z,1006.4
2023-02-17T01:24:56.712Z,1006.4
2023-02-17T01:26:13.008Z,1006.4
2023-02-17T01:27:29.309Z,1006.5
2023-02-17T01:28:45.609Z,1006.4
2023-02-17T01:30:01.903Z,1006.4
2023-02-17T01:31:18.188Z,1006.4
2023-02-17T01:32:34.480Z,1006.5
2023-02-17T01:33:50.785Z,1006.5
2023-02-17T01:35:07.071Z,1006.4
2023-02-17T01:36:22.388Z,1006.4
2023-02-17T01:37:38.676Z,1006.3
2023-02-17T01:38:54.982Z,1006.3
2023-02-17T01:40:11.263Z,1006.3
2023-02-17T01:41:27.558Z,1006.3
2023-02-17T01:42:43.850Z,1006.3
2023-02-17T01:44:00.148Z,1006.3
2023-02-17T01:45:16.435Z,1006.3
2023-02-17T01:46:32.742Z,1006.3
2023-02-17T01:47:49.033Z,1006.3
2023-02-17T01:49:05.331Z,1006.4
2023-02-17T01:50:21.618Z,1006.3
2023-02-17T01:51:37.904Z,1006.4
2023-02-17T01:52:53.224Z,1006.3
2023-02-17T01:54:09.508Z,1006.3
2023-02-17T01:55:25.807Z,1006.3
2023-02-17T01:56:42.105Z,1006.3
2023-02-17T01:57:58.396Z,1006.3
2023-02-17T01:59:14.690Z,1006.2
2023-02-17T02:00:30.979Z,1006.2
2023-02-17T02:01:47.292Z,1006.2
2023-02-17T02:03:03.573Z,1006.2
2023-02-17T02:04:19.872Z,1006.3
2023-02-17T02:05:36.160Z,1006.2
2023-02-17T02:06:52.466Z,1006.2
2023-02-17T02:08:08.756Z,1006.2
2023-02-17T02:09:24.070Z,1006.1
2023-02-17T02:10:40.365Z,1006.1
2023-02-17T02:11:56.652Z,1006
2023-02-17T02:13:12.941Z,1006
2023-02-17T02:14:29.233Z,1005.9
2023-02-17T02:15:45.528Z,1005.9
2023-02-17T02:17:01.822Z,1005.9
2023-02-17T02:18:18.123Z,1005.8
2023-02-17T02:19:34.424Z,1005.8
2023-02-17T02:20:50.708Z,1005.8
2023-02-17T02:22:07.006Z,1005.8
2023-02-17T02:23:23.300Z,1005.8
2023-02-17T02:24:39.587Z,1005.7
2023-02-17T02:25:54.900Z,1005.7
2023-02-17T02:27:11.201Z,1005.7
2023-02-17T02:28:27.485Z,1005.7
2023-02-17T02:29:43.783Z,1005.7
2023-02-17T02:31:00.077Z,1005.7
2023-02-17T02:32:16.374Z,1005.6
2023-02-17T02:33:32.669Z,1005.7
2023-02-17T02:34:48.961Z,1005.6
2023-02-17T02:36:05.259Z,1005.6
2023-02-17T02:37:21.551Z,1005.6
2023-02-17T02:38:37.839Z,1005.5
2023-02-17T02:39:54.147Z,1005.6
2023-02-17T02:41:10.432Z,1005.6
2023-02-17T02:42:25.755Z,1005.5
2023-02-17T02:43:42.038Z,1005.5
2023-02-17T02:44:58.332Z,1005.5
2023-02-17T02:46:14.620Z,1005.5
2023-02-17T02:47:30.914Z,1005.5
2023-02-17T02:48:47.213Z,1005.5
2023-02-17T02:50:03.516Z,1005.5
2023-02-17T02:51:19.804Z,1005.5
2023-02-17T02:52:36.097Z,1005.5
2023-02-17T02:53:52.383Z,1005.4
2023-02-17T02:55:08.684Z,1005.4
2023-02-17T02:56:24.978Z,1005.4
2023-02-17T02:57:41.282Z,1005.4
2023-02-17T02:58:56.591Z,1005.4
2023-02-17T03:00:12.888Z,1005.5
2023-02-17T03:01:29.167Z,1005.4
2023-02-17T03:02:45.457Z,1005.3
2023-02-17T03:04:01.751Z,1005.3
2023-02-17T03:05:18.052Z,1005.3
2023-02-17T03:06:34.346Z,1005.3
2023-02-17T03:07:50.639Z,1005.3
2023-02-17T03:09:06.931Z,1005.5
2023-02-17T03:10:23.238Z,1005.3
2023-02-17T03:11:39.521Z,1005.4
2023-02-17T03:12:55.821Z,1005.3
2023-02-17T03:14:12.124Z,1005.3
2023-02-17T03:15:27.421Z,1005.3
2023-02-17T03:16:43.725Z,1005.4
2023-02-17T03:18:00.016Z,1005.3
2023-02-17T03:19:16.302Z,1005.3
2023-02-17T03:20:32.596Z,1005.3
2023-02-17T03:21:48.891Z,1005.3
2023-02-17T03:23:04.212Z,1005.3
2023-02-17T03:24:20.498Z,1005.3
2023-02-17T03:25:36.792Z,1005.3
2023-02-17T03:26:53.090Z,1005.2
2023-02-17T03:28:09.380Z,1005.2
2023-02-17T03:29:25.684Z,1005.2
2023-02-17T03:30:41.979Z,1005.2
2023-02-17T03:31:58.269Z,1005.2
2023-02-17T03:33:14.571Z,1005.2
2023-02-17T03:34:30.855Z,1005.2
2023-02-17T03:35:47.143Z,1005.2
2023-02-17T03:37:03.448Z,1005.2
2023-02-17T03:38:19.750Z,1005.2
2023-02-17T03:39:35.046Z,1005.2
2023-02-17T03:40:51.337Z,1005.1
2023-02-17T03:42:07.632Z,1005.1
2023-02-17T03:43:23.927Z,1005.1
2023-02-17T03:44:40.227Z,1005.1
2023-02-17T03:45:56.519Z,1005.1
2023-02-17T03:47:12.813Z,1005
2023-02-17T03:48:29.110Z,1005.1
2023-02-17T03:49:45.415Z,1005.1
2023-02-17T03:51:01.705Z,1005
2023-02-17T03:52:18.003Z,1005.1
2023-02-17T03:53:34.282Z,1005.1
2023-02-17T03:54:50.589Z,1005.1
2023-02-17T03:56:05.886Z,1005.1
2023-02-17T03:57:22.180Z,1005.1
2023-02-17T03:59:54.766Z,1005
2023-02-17T04:01:11.064Z,1005
2023-02-17T04:02:27.367Z,1005
2023-02-17T04:03:43.663Z,1004.9
2023-02-17T04:04:59.944Z,1004.9
2023-02-17T04:06:16.244Z,1005
2023-02-17T04:07:32.541Z,1005
2023-02-17T04:08:48.843Z,1004.9
2023-02-17T04:10:05.129Z,1005
2023-02-17T04:11:21.422Z,1005
2023-02-17T04:12:36.726Z,1004.9
2023-02-17T04:13:53.022Z,1004.9
2023-02-17T04:15:09.327Z,1004.9
2023-02-17T04:16:25.607Z,1004.9
2023-02-17T04:17:41.909Z,1004.9
2023-02-17T04:18:58.195Z,1004.9
2023-02-17T04:20:14.504Z,1004.9
2023-02-17T04:21:30.791Z,1004.9
2023-02-17T04:22:47.087Z,1004.9
2023-02-17T04:24:03.377Z,1005
2023-02-17T04:25:19.678Z,1004.9
2023-02-17T04:26:35.968Z,1005
2023-02-17T04:27:52.259Z,1004.9
2023-02-17T04:29:07.574Z,1004.9
2023-02-17T04:30:23.857Z,1005
2023-02-17T04:31:40.157Z,1004.9
2023-02-17T04:32:56.456Z,1004.9
2023-02-17T04:34:12.755Z,1004.9
2023-02-17T04:35:29.035Z,1004.9
2023-02-17T04:36:45.339Z,1004.9
2023-02-17T04:38:01.628Z,1004.9
2023-02-17T04:39:17.931Z,1004.9
2023-02-17T04:40:34.229Z,1004.8
2023-02-17T04:41:50.515Z,1004.8
2023-02-17T04:43:06.812Z,1004.8
2023-02-17T04:44:23.101Z,1004.8
2023-02-17T04:45:38.410Z,1004.9
2023-02-17T04:46:54.697Z,1004.8
2023-02-17T04:48:10.990Z,1004.8
2023-02-17T04:49:27.286Z,1004.8
2023-02-17T04:50:43.594Z,1004.8
2023-02-17T04:51:59.884Z,1004.8
2023-02-17T04:53:16.172Z,1004.8
2023-02-17T04:54:32.477Z,1004.8
2023-02-17T04:55:48.757Z,1004.8
2023-02-17T04:57:05.067Z,1004.7
2023-02-17T04:58:21.359Z,1004.8
2023-02-17T04:59:37.647Z,1004.7
2023-02-17T05:00:53.931Z,1004.7
2023-02-17T05:02:09.254Z,1004.6
2023-02-17T05:03:25.543Z,1004.6
2023-02-17T05:04:41.839Z,1004.6
2023-02-17T05:05:58.134Z,1004.6
2023-02-17T05:07:14.430Z,1004.6
2023-02-17T05:08:30.720Z,1004.6
2023-02-17T05:09:47.026Z,1004.5
2023-02-17T05:11:03.311Z,1004.5
2023-02-17T05:12:19.608Z,1004.6
2023-02-17T05:13:35.892Z,1004.6
2023-02-17T05:14:52.199Z,1004.6
2023-02-17T05:16:08.490Z,1004.6
2023-02-17T05:17:24.772Z,1004.6
2023-02-17T05:18:40.099Z,1004.6
2023-02-17T05:19:56.386Z,1004.5
2023-02-17T05:21:12.682Z,1004.5
2023-02-17T05:22:28.976Z,1004.5
2023-02-17T05:23:45.271Z,1004.6
2023-02-17T05:25:01.561Z,1004.4
2023-02-17T05:26:17.865Z,1004.5
2023-02-17T05:27:34.155Z,1004.4
2023-02-17T05:28:50.443Z,1004.4
2023-02-17T05:30:06.730Z,1004.4
2023-02-17T05:31:23.026Z,1004.4
2023-02-17T05:32:39.321Z,1004.4
2023-02-17T05:33:55.625Z,1004.3
2023-02-17T05:35:10.930Z,1004.3
2023-02-17T05:36:27.233Z,1004.4
2023-02-17T05:37:43.516Z,1004.4
2023-02-17T05:38:59.818Z,1004.4
2023-02-17T05:40:16.099Z,1004.3
2023-02-17T05:41:32.400Z,1004.3
2023-02-17T05:42:48.693Z,1004.4
2023-02-17T05:44:04.987Z,1004.4
2023-02-17T05:45:21.287Z,1004.3
2023-02-17T05:46:37.582Z,1004.3
2023-02-17T05:47:53.874Z,1004.3
2023-02-17T05:49:10.177Z,1004.3
2023-02-17T05:50:26.456Z,1004.3
2023-02-17T05:51:41.770Z,1004.3
2023-02-17T05:52:58.061Z,1004.4
2023-02-17T05:54:14.358Z,1004.4
2023-02-17T05:55:30.647Z,1004.4
2023-02-17T05:56:46.955Z,1004.4
2023-02-17T05:58:03.249Z,1004.4
2023-02-17T05:59:19.484Z,1004.4
2023-02-17T06:00:35.787Z,1004.4
2023-02-17T06:01:52.078Z,1004.5
2023-02-17T06:03:08.362Z,1004.5
2023-02-17T06:04:24.629Z,1004.5
2023-02-17T06:05:40.860Z,1004.6
2023-02-17T06:06:57.100Z,1004.5
2023-02-17T06:08:12.406Z,1004.5
2023-02-17T06:09:28.656Z,1004.7
2023-02-17T06:10:44.906Z,1004.6
2023-02-17T06:12:01.141Z,1004.6
2023-02-17T06:13:17.387Z,1004.6
2023-02-17T06:14:33.626Z,1004.6
2023-02-17T06:15:49.867Z,1004.5
2023-02-17T06:17:06.101Z,1004.5
2023-02-17T06:18:22.352Z,1004.4
2023-02-17T06:19:38.578Z,1004.5
2023-02-17T06:20:54.834Z,1004.5
2023-02-17T06:22:11.061Z,1004.5
2023-02-17T06:23:27.313Z,1004.5
2023-02-17T06:24:42.558Z,1004.4
2023-02-17T06:25:58.801Z,1004.4
2023-02-17T06:27:15.033Z,1004.3
2023-02-17T06:28:31.278Z,1004.5
2023-02-17T06:29:47.513Z,1004.3
2023-02-17T06:31:03.759Z,1004.3
2023-02-17T06:32:20.007Z,1004.3
2023-02-17T06:33:36.244Z,1004.4
2023-02-17T06:34:52.482Z,1004.3
2023-02-17T06:36:08.729Z,1004.3
2023-02-17T06:37:24.967Z,1004.2
2023-02-17T06:38:41.207Z,1004.3
2023-02-17T06:39:57.450Z,1004.2
2023-02-17T06:41:12.690Z,1004.2
2023-02-17T06:42:28.944Z,1004.2
2023-02-17T06:43:45.188Z,1004.2
2023-02-17T06:45:01.430Z,1004.2
2023-02-17T06:46:17.670Z,1004.2
2023-02-17T06:47:33.893Z,1004.1
2023-02-17T06:48:50.140Z,1004.1
2023-02-17T06:50:06.373Z,1004.1
2023-02-17T06:51:22.615Z,1004.1
2023-02-17T06:52:38.862Z,1004.1
2023-02-17T06:53:55.095Z,1004.1
2023-02-17T06:55:11.350Z,1004.1
2023-02-17T06:56:27.588Z,1004
2023-02-17T06:57:42.833Z,1004
2023-02-17T06:58:59.076Z,1003.9
2023-02-17T07:00:15.317Z,1004
2023-02-17T07:01:31.549Z,1004
2023-02-17T07:02:47.808Z,1004
2023-02-17T07:04:04.055Z,1004
2023-02-17T07:05:20.273Z,1004.1
2023-02-17T07:06:36.531Z,1004
2023-02-17T07:07:52.766Z,1004.1
2023-02-17T07:09:09.001Z,1004
2023-02-17T07:10:25.231Z,1004
2023-02-17T07:12:57.727Z,1004.1
2023-02-17T07:14:12.987Z,1004
2023-02-17T07:15:29.220Z,1003.9
2023-02-17T07:16:45.446Z,1004
2023-02-17T07:18:01.688Z,1004
2023-02-17T07:19:17.931Z,1004
2023-02-17T07:20:34.178Z,1004
2023-02-17T07:21:50.408Z,1004
2023-02-17T07:23:06.654Z,1004
2023-02-17T07:24:22.909Z,1004
2023-02-17T07:25:39.138Z,1003.9
2023-02-17T07:26:55.373Z,1003.9
2023-02-17T07:28:11.627Z,1003.9
2023-02-17T07:29:27.853Z,1003.9
2023-02-17T07:30:43.108Z,1004
2023-02-17T07:31:59.348Z,1004
2023-02-17T07:33:15.596Z,1003.9
2023-02-17T07:34:31.841Z,1004
2023-02-17T07:35:48.074Z,1004
2023-02-17T07:37:04.315Z,1004
2023-02-17T07:38:19.586Z,1004
2023-02-17T07:39:35.813Z,1004.1
2023-02-17T07:40:52.055Z,1004.1
2023-02-17T07:42:08.295Z,1004.2
2023-02-17T07:43:24.553Z,1004.1
2023-02-17T07:44:40.769Z,1004.1
2023-02-17T07:45:57.015Z,1004.1
2023-02-17T07:47:13.248Z,1004.1
2023-02-17T07:48:29.510Z,1004.1
2023-02-17T07:49:45.732Z,1004.1
2023-02-17T07:51:01.985Z,1004.2
2023-02-17T07:52:18.227Z,1004.2
2023-02-17T07:53:34.458Z,1004.3
2023-02-17T07:54:49.720Z,1004.2
2023-02-17T07:56:05.950Z,1004.2
2023-02-17T07:57:22.189Z,1004.2
2023-02-17T07:58:38.428Z,1004.3
2023-02-17T07:59:54.670Z,1004.2
2023-02-17T08:01:10.905Z,1004.2
2023-02-17T08:02:27.164Z,1004.2
2023-02-17T08:03:43.397Z,1004.2
2023-02-17T08:04:59.634Z,1004.2
2023-02-17T08:06:15.876Z,1004
2023-02-17T08:07:32.105Z,1004
2023-02-17T08:08:48.361Z,1004
2023-02-17T08:10:04.604Z,1004.1
2023-02-17T08:11:19.857Z,1004
2023-02-17T08:12:36.091Z,1004
2023-02-17T08:13:52.346Z,1004
2023-02-17T08:15:08.564Z,1003.9
2023-02-17T08:16:24.815Z,1004
2023-02-17T08:17:41.052Z,1003.9
2023-02-17T08:18:57.295Z,1004
2023-02-17T08:20:13.525Z,1003.9
2023-02-17T08:21:29.783Z,1003.8
2023-02-17T08:22:46.010Z,1003.9
2023-02-17T08:24:02.247Z,1003.8
2023-02-17T08:25:18.483Z,1003.8
2023-02-17T08:26:34.735Z,1003.8
2023-02-17T08:27:50.003Z,1003.7
2023-02-17T08:29:06.225Z,1003.7
2023-02-17T08:30:22.470Z,1003.7
2023-02-17T08:31:38.715Z,1003.8
2023-02-17T08:32:54.958Z,1003.7
2023-02-17T08:34:11.192Z,1003.7
2023-02-17T08:35:27.423Z,1003.6
2023-02-17T08:36:43.679Z,1003.6
2023-02-17T08:37:59.900Z,1003.6
2023-02-17T08:39:16.146Z,1003.6
2023-02-17T08:40:32.392Z,1003.6
2023-02-17T08:41:48.628Z,1003.7
2023-02-17T08:43:04.875Z,1003.6
2023-02-17T08:44:20.141Z,1003.6
2023-02-17T08:45:36.362Z,1003.7
2023-02-17T08:46:52.596Z,1003.6
2023-02-17T08:48:08.839Z,1003.7
2023-02-17T08:49:25.093Z,1003.7
2023-02-17T08:50:41.334Z,1003.6
2023-02-17T08:51:57.564Z,1003.6
2023-02-17T08:53:13.806Z,1003.6
2023-02-17T08:54:30.044Z,1003.6
2023-02-17T08:55:46.288Z,1003.6
2023-02-17T08:57:02.526Z,1003.5
2023-02-17T08:58:18.781Z,1003.5
2023-02-17T08:59:35.004Z,1003.5
2023-02-17T09:00:50.278Z,1003.5
2023-02-17T09:02:06.508Z,1003.5
2023-02-17T09:03:22.738Z,1003.5
2023-02-17T09:04:38.995Z,1003.4
2023-02-17T09:05:55.223Z,1003.4
2023-02-17T09:07:11.465Z,1003.4
2023-02-17T09:08:27.707Z,1003.3
2023-02-17T09:09:43.000Z,1003.3
2023-02-17T09:11:00.185Z,1003.4
2023-02-17T09:12:16.416Z,1003.3
2023-02-17T09:13:32.674Z,1003.3
2023-02-17T09:14:48.910Z,1003.3
2023-02-17T09:16:05.148Z,1003.3
2023-02-17T09:17:20.406Z,1003.3
2023-02-17T09:18:36.643Z,1003.4
2023-02-17T09:19:52.871Z,1003.3
2023-02-17T09:21:09.128Z,1003.3
2023-02-17T09:22:25.372Z,1003.3
2023-02-17T09:23:41.592Z,1003.3
2023-02-17T09:24:57.852Z,1003.3
2023-02-17T09:26:14.088Z,1003.3
2023-02-17T09:27:30.321Z,1003.3
2023-02-17T09:28:46.556Z,1003.4
2023-02-17T09:30:02.812Z,1003.4
2023-02-17T09:31:19.049Z,1003.4
2023-02-17T09:32:35.268Z,1003.4
2023-02-17T09:33:50.539Z,1003.4
2023-02-17T09:35:06.774Z,1003.4
2023-02-17T09:36:23.015Z,1003.3
2023-02-17T09:37:39.245Z,1003.3
2023-02-17T09:38:55.503Z,1003.3
2023-02-17T09:40:11.734Z,1003.3
2023-02-17T09:41:27.976Z,1003.2
2023-02-17T09:42:44.209Z,1003.3
2023-02-17T09:44:00.449Z,1003.2
2023-02-17T09:45:16.699Z,1003.1
2023-02-17T09:46:32.940Z,1003.1
2023-02-17T09:47:49.177Z,1003
2023-02-17T09:49:05.408Z,1003
2023-02-17T09:50:20.669Z,1002.9
2023-02-17T09:51:36.920Z,1002.9
2023-02-17T09:52:53.152Z,1002.9
2023-02-17T09:54:09.396Z,1002.9
2023-02-17T09:55:25.652Z,1002.8
2023-02-17T09:56:41.879Z,1002.7
2023-02-17T09:57:58.105Z,1002.7
2023-02-17T09:59:14.346Z,1002.7
2023-02-17T10:00:30.582Z,1002.6
2023-02-17T10:01:46.822Z,1002.7
2023-02-17T10:03:03.072Z,1002.7
2023-02-17T10:04:19.302Z,1002.7
2023-02-17T10:05:35.549Z,1002.7
2023-02-17T10:06:50.804Z,1002.7
2023-02-17T10:08:07.038Z,1002.8
2023-02-17T10:09:23.294Z,1002.7
2023-02-17T10:10:39.522Z,1002.7
2023-02-17T10:11:55.757Z,1002.7
2023-02-17T10:13:11.995Z,1002.7
2023-02-17T10:14:28.239Z,1002.7
2023-02-17T10:15:44.487Z,1002.8
2023-02-17T10:17:00.720Z,1002.8
2023-02-17T10:18:16.000Z,1002.7
2023-02-17T10:19:33.207Z,1002.7
2023-02-17T10:20:49.447Z,1002.7
2023-02-17T10:22:05.683Z,1002.7
2023-02-17T10:23:20.932Z,1002.7
2023-02-17T10:24:37.184Z,1002.7
2023-02-17T10:25:53.418Z,1002.6
2023-02-17T10:27:09.667Z,1002.7
2023-02-17T10:28:25.910Z,1002.6
2023-02-17T10:29:42.139Z,1002.6
2023-02-17T10:30:58.394Z,1002.6
2023-02-17T10:32:14.612Z,1002.7
2023-02-17T10:33:30.870Z,1002.5
2023-02-17T10:34:47.093Z,1002.6
2023-02-17T10:36:03.338Z,1002.6
2023-02-17T10:37:19.592Z,1002.5
2023-02-17T10:38:35.812Z,1002.6
2023-02-17T10:39:51.071Z,1002.4
2023-02-17T10:41:07.314Z,1002.4
2023-02-17T10:42:23.550Z,1002.5
2023-02-17T10:43:39.791Z,1002.4
2023-02-17T10:44:56.029Z,1002.4
2023-02-17T10:46:12.282Z,1002.4
2023-02-17T10:47:28.510Z,1002.3
2023-02-17T10:48:44.755Z,1002.3
2023-02-17T10:50:00.991Z,1002.3
2023-02-17T10:51:17.228Z,1002.3
2023-02-17T10:52:33.473Z,1002.2
2023-02-17T10:53:49.709Z,1002.2
2023-02-17T10:55:05.964Z,1002.3
2023-02-17T10:56:21.214Z,1002.3
2023-02-17T10:57:37.454Z,1002.3
2023-02-17T10:58:53.693Z,1002.2
2023-02-17T11:00:09.951Z,1002.2
2023-02-17T11:01:26.171Z,1002.2
2023-02-17T11:02:42.417Z,1002.2
2023-02-17T11:03:58.647Z,1002.1
2023-02-17T11:05:14.888Z,1002.1
2023-02-17T11:06:31.138Z,1002.1
2023-02-17T11:07:47.394Z,1002
2023-02-17T11:09:03.614Z,1002
2023-02-17T11:10:19.858Z,1002
2023-02-17T11:11:36.110Z,1002.1
2023-02-17T11:12:51.352Z,1002.1
2023-02-17T11:14:07.614Z,1002
2023-02-17T11:15:23.829Z,1002
2023-02-17T11:16:40.073Z,1001.9
2023-02-17T11:17:56.330Z,1001.9
2023-02-17T11:19:12.542Z,1001.8
2023-02-17T11:20:28.794Z,1001.8
2023-02-17T11:21:45.033Z,1001.8
2023-02-17T11:23:01.285Z,1001.8
2023-02-17T11:24:17.503Z,1001.8
2023-02-17T11:25:33.756Z,1001.8
2023-02-17T11:26:49.979Z,1001.8
2023-02-17T11:28:06.224Z,1001.8
2023-02-17T11:29:21.475Z,1001.8
2023-02-17T11:30:37.724Z,1001.7
2023-02-17T11:31:53.968Z,1001.7
2023-02-17T11:33:10.209Z,1001.7
2023-02-17T11:34:26.466Z,1001.8
2023-02-17T11:35:42.676Z,1001.7
2023-02-17T11:36:58.935Z,1001.6
2023-02-17T11:38:15.171Z,1001.7
2023-02-17T11:39:31.411Z,1001.8
2023-02-17T11:40:47.642Z,1001.7
2023-02-17T11:42:03.899Z,1001.7
2023-02-17T11:43:20.115Z,1001.6
2023-02-17T11:44:36.364Z,1001.5
2023-02-17T11:45:51.620Z,1001.5
2023-02-17T11:47:07.867Z,1001.4
2023-02-17T11:48:24.101Z,1001.4
2023-02-17T11:49:40.346Z,1001.3
2023-02-17T11:50:56.588Z,1001.4
2023-02-17T11:52:12.829Z,1001.4
2023-02-17T11:53:28.079Z,1001.3
2023-02-17T11:54:44.337Z,1001.3
2023-02-17T11:56:00.572Z,1001.2
2023-02-17T11:57:16.796Z,1001.2
2023-02-17T11:58:33.043Z,1001.2
2023-02-17T11:59:49.279Z,1001.2
2023-02-17T12:01:05.531Z,1001.1
2023-02-17T12:02:21.769Z,1001.1
2023-02-17T12:03:37.999Z,1001.1
2023-02-17T12:04:54.244Z,1001.1
2023-02-17T12:06:10.483Z,1001.1
2023-02-17T12:07:26.741Z,1001
2023-02-17T12:08:42.985Z,1001
2023-02-17T12:09:58.220Z,1001
2023-02-17T12:11:14.453Z,1001
2023-02-17T12:12:30.698Z,1001
2023-02-17T12:13:46.947Z,1000.9
2023-02-17T12:15:03.169Z,1001
2023-02-17T12:16:19.421Z,1000.9
2023-02-17T12:17:35.649Z,1000.8
2023-02-17T12:18:51.890Z,1000.8
2023-02-17T12:20:08.149Z,1001
2023-02-17T12:21:24.387Z,1000.8
2023-02-17T12:22:40.613Z,1000.8
2023-02-17T12:23:56.868Z,1000.9
2023-02-17T12:25:13.102Z,1000.9
2023-02-17T12:26:28.367Z,1000.9
2023-02-17T12:27:44.608Z,1000.8
2023-02-17T12:29:00.828Z,1000.8
2023-02-17T12:30:17.084Z,1000.8
2023-02-17T12:31:33.322Z,1000.8
2023-02-17T12:32:49.552Z,1000.8
2023-02-17T12:34:05.801Z,1000.9
2023-02-17T12:35:22.041Z,1000.9
2023-02-17T12:36:38.272Z,1000.9
2023-02-17T12:37:54.536Z,1000.9
2023-02-17T12:39:10.768Z,1000.8
2023-02-17T12:40:26.981Z,1000.8
2023-02-17T12:41:43.245Z,1000.7
2023-02-17T12:42:58.481Z,1000.7
2023-02-17T12:44:14.729Z,1000.6
2023-02-17T12:45:30.989Z,1000.6
2023-02-17T12:46:47.230Z,1000.5
2023-02-17T12:48:03.446Z,1000.5
2023-02-17T12:49:19.697Z,1000.5
2023-02-17T12:50:35.946Z,1000.5
2023-02-17T12:51:52.166Z,1000.6
2023-02-17T12:53:08.412Z,1000.6
2023-02-17T12:54:24.667Z,1000.6
2023-02-17T12:55:40.900Z,1000.6
2023-02-17T12:56:57.127Z,1000.5
2023-02-17T12:58:13.373Z,1000.5
2023-02-17T12:59:28.624Z,1000.5
2023-02-17T13:00:44.856Z,1000.4
2023-02-17T13:02:01.109Z,1000.4
2023-02-17T13:03:17.340Z,1000.4
2023-02-17T13:04:33.573Z,1000.3
2023-02-17T13:05:49.832Z,1000.3
2023-02-17T13:07:06.079Z,1000.3
2023-02-17T13:08:22.313Z,1000.3
2023-02-17T13:09:38.546Z,1000.2
2023-02-17T13:10:54.775Z,1000.2
2023-02-17T13:12:11.036Z,1000.1
2023-02-17T13:13:27.263Z,1000.2
2023-02-17T13:14:43.513Z,1000.2
2023-02-17T13:15:58.777Z,1000.2
2023-02-17T13:17:14.991Z,1000.1
2023-02-17T13:18:31.246Z,1000.1
2023-02-17T13:19:47.490Z,1000.2
2023-02-17T13:21:03.728Z,1000.1
2023-02-17T13:22:19.964Z,1000
2023-02-17T13:23:36.191Z,1000
2023-02-17T13:24:52.450Z,1000.1
2023-02-17T13:26:08.668Z,1000.2
2023-02-17T13:27:24.914Z,1000.1
2023-02-17T13:28:41.164Z,1000.1
2023-02-17T13:29:57.394Z,1000.1
2023-02-17T13:31:13.646Z,1000.2
2023-02-17T13:32:28.895Z,1000.1
2023-02-17T13:33:45.137Z,1000.2
2023-02-17T13:35:01.365Z,1000
2023-02-17T13:36:17.606Z,1000
2023-02-17T13:37:33.876Z,1000
2023-02-17T13:38:50.107Z,1000
2023-02-17T13:40:06.358Z,999.9
2023-02-17T13:41:22.576Z,999.9
2023-02-17T13:42:38.804Z,999.9
2023-02-17T13:43:55.062Z,1000
2023-02-17T13:45:11.286Z,999.9
2023-02-17T13:46:27.532Z,999.9
2023-02-17T13:47:43.769Z,999.9
2023-02-17T13:48:59.037Z,999.8
2023-02-17T13:50:15.258Z,999.8
2023-02-17T13:51:31.502Z,999.9
2023-02-17T13:52:47.749Z,999.8
2023-02-17T13:54:03.997Z,999.8
2023-02-17T13:55:20.239Z,999.8
2023-02-17T13:56:36.463Z,999.9
2023-02-17T13:57:52.706Z,999.8
2023-02-17T13:59:08.954Z,999.9
2023-02-17T14:00:25.201Z,999.9
2023-02-17T14:01:41.437Z,999.9
2023-02-17T14:02:57.681Z,999.9
2023-02-17T14:04:13.902Z,1000
2023-02-17T14:05:29.155Z,999.9
2023-02-17T14:06:45.404Z,1000
2023-02-17T14:08:01.638Z,999.8
2023-02-17T14:09:17.876Z,999.8
2023-02-17T14:10:34.139Z,999.7
2023-02-17T14:11:50.370Z,999.7
2023-02-17T14:13:06.600Z,999.6
2023-02-17T14:14:22.854Z,999.8
2023-02-17T14:15:39.080Z,999.5
2023-02-17T14:16:55.311Z,999.4
2023-02-17T14:18:11.559Z,999.3
2023-02-17T14:19:27.798Z,999.3
2023-02-17T14:20:44.045Z,999.3
2023-02-17T14:21:59.307Z,999.3
2023-02-17T14:23:15.538Z,999.3
2023-02-17T14:24:31.771Z,999.4
2023-02-17T14:25:48.008Z,999.4
2023-02-17T14:27:04.248Z,999.3
2023-02-17T14:28:20.508Z,999.2
2023-02-17T14:29:36.751Z,999.2
2023-02-17T14:30:52.981Z,999.2
2023-02-17T14:32:09.224Z,999.1
2023-02-17T14:33:25.462Z,999.2
2023-02-17T14:34:41.716Z,999.2
2023-02-17T14:35:57.924Z,999.2
2023-02-17T14:37:14.198Z,999.3
2023-02-17T14:38:29.437Z,999.2
2023-02-17T14:39:45.689Z,999.5
2023-02-17T14:41:01.932Z,999.4
2023-02-17T14:42:18.151Z,999.5
2023-02-17T14:43:34.380Z,999.6
2023-02-17T14:44:50.643Z,999.7
2023-02-17T14:46:06.866Z,999.7
2023-02-17T14:47:23.117Z,999.8
2023-02-17T14:48:39.358Z,999.9
2023-02-17T14:49:55.599Z,999.9
2023-02-17T14:51:11.840Z,999.9
2023-02-17T14:52:28.082Z,1000.1
2023-02-17T14:53:44.321Z,1000.1
2023-02-17T14:54:59.579Z,1000
2023-02-17T14:56:15.826Z,1000
2023-02-17T14:57:32.054Z,1000.1
2023-02-17T14:58:48.284Z,1000
2023-02-17T15:00:04.532Z,1000
2023-02-17T15:01:20.769Z,1000
2023-02-17T15:02:37.016Z,1000
2023-02-17T15:03:53.248Z,1000.2
2023-02-17T15:05:09.505Z,1000.1
2023-02-17T15:06:25.753Z,1000.2
2023-02-17T15:07:41.964Z,1000.2
2023-02-17T15:08:58.212Z,1000
2023-02-17T15:10:14.436Z,1000.1
2023-02-17T15:11:29.711Z,1000.2
2023-02-17T15:12:45.928Z,1000
2023-02-17T15:14:02.190Z,1000
2023-02-17T15:15:18.427Z,1000.1
2023-02-17T15:16:34.664Z,1000.2
2023-02-17T15:17:50.897Z,1000.4
2023-02-17T15:19:07.133Z,1000.3
2023-02-17T15:20:23.380Z,1000.3
2023-02-17T15:21:39.627Z,1000.1
2023-02-17T15:22:55.865Z,1000.1
2023-02-17T15:24:12.095Z,1000
2023-02-17T15:25:28.366Z,1000
2023-02-17T15:26:44.566Z,1000
2023-02-17T15:27:59.825Z,1000
2023-02-17T15:29:16.075Z,999.9
2023-02-17T15:30:32.326Z,999.9
2023-02-17T15:31:48.563Z,1000
2023-02-17T15:33:04.810Z,1000
2023-02-17T15:34:21.041Z,1000
2023-02-17T15:35:37.302Z,999.9
2023-02-17T15:36:53.501Z,999.9
2023-02-17T15:38:09.745Z,999.8
2023-02-17T15:39:25.993Z,999.9
2023-02-17T15:40:42.222Z,999.9
2023-02-17T15:41:58.472Z,999.8
2023-02-17T15:43:14.704Z,999.7
2023-02-17T15:44:29.957Z,999.8
2023-02-17T15:45:46.208Z,999.9
2023-02-17T15:47:02.442Z,999.8
2023-02-17T15:48:18.703Z,999.8
2023-02-17T15:49:34.935Z,999.8
2023-02-17T15:50:51.178Z,999.8
2023-02-17T15:52:07.407Z,1000
2023-02-17T15:53:23.636Z,999.9
2023-02-17T15:54:39.903Z,999.9
2023-02-17T15:55:56.122Z,999.9
2023-02-17T15:57:12.377Z,999.9
2023-02-17T15:58:28.606Z,999.9
2023-02-17T15:59:44.861Z,999.9
2023-02-17T16:01:00.103Z,999.8
2023-02-17T16:02:16.337Z,999.8
2023-02-17T16:03:32.591Z,999.7